Time;durP1;ratioP1;P1;durP2;ratioP2;P2;SDS_P1;SDS_P2;PMS_P1;PMS_P2;Temp;Humidity;BMP_temperature;BMP_pressure;BME280_temperature;BME280_humidity;BME280_pressure;Samples;Min_cycle;Max_cycle;Signal;HPM_P1;HPM_P2
2022/10/13 00:02:09;;;;;;;;;;;12.00;69.60;;;;;;5076879;28;19946;-77
2022/10/13 00:04:35;;;;;;;;;;;12.00;69.60;;;;;;5061697;28;19955;-77
2022/10/13 00:07:00;;;;;;;;;;;12.00;69.60;;;;;;5061424;28;19912;-77
2022/10/13 00:09:26;;;;;;;;;;;12.00;69.70;;;;;;5059178;28;19948;-77
2022/10/13 00:11:51;;;;;;;;;;;11.90;69.60;;;;;;5075630;28;19912;-77
2022/10/13 00:14:17;;;;;;;;;;;12.00;69.70;;;;;;5059100;28;20459;-77
2022/10/13 00:16:42;;;;;;;;;;;12.00;69.70;;;;;;5070608;28;19920;-76
2022/10/13 00:19:08;;;;;;;;;;;12.00;69.70;;;;;;5060645;28;20031;-77
2022/10/13 00:21:33;;;;;;;;;;;12.10;69.70;;;;;;5057345;28;19916;-77
2022/10/13 00:23:59;;;;;;;;;;;12.00;70.50;;;;;;5057578;28;19944;-78
2022/10/13 00:26:24;;;;;;;;;;;12.00;69.70;;;;;;5059623;28;19924;-77
2022/10/13 00:28:50;;;;;;;;;;;12.00;69.70;;;;;;5074857;28;20201;-78
2022/10/13 00:31:23;;;;;;;;;;;12.00;69.70;;;;;;5076882;28;20330;-77
2022/10/13 00:33:48;;;;;;;;;;;12.00;69.70;;;;;;5060824;28;19912;-77
2022/10/13 00:36:14;;;;;;;;;;;12.00;69.70;;;;;;5071173;28;20832;-77
2022/10/13 00:38:39;;;;;;;;;;;12.00;69.70;;;;;;5046283;28;19917;-76
2022/10/13 00:41:05;;;;;;;;;;;12.00;69.70;;;;;;5090694;28;20015;-76
2022/10/13 00:43:45;;;;;;;;;;;12.00;69.80;;;;;;5075968;28;20540;-77
2022/10/13 00:46:11;;;;;;;;;;;12.00;69.80;;;;;;5075620;28;19912;-77
2022/10/13 00:48:36;;;;;;;;;;;12.00;69.80;;;;;;5058650;28;19912;-77
2022/10/13 00:51:02;;;;;;;;;;;12.00;69.80;;;;;;5058595;28;19943;-76
2022/10/13 00:53:30;;;;;;;;;;;12.00;70.00;;;;;;5075949;28;20281;-77
2022/10/13 00:55:55;;;;;;;;;;;12.00;69.90;;;;;;5059998;28;19920;-77
2022/10/13 00:58:21;;;;;;;;;;;12.00;69.80;;;;;;5076220;28;19923;-77
2022/10/13 01:00:47;;;;;;;;;;;12.00;69.80;;;;;;5062177;28;19916;-77
2022/10/13 01:03:13;;;;;;;;;;;12.00;69.80;;;;;;5074690;28;20449;-77
2022/10/13 01:05:38;;;;;;;;;;;12.00;69.90;;;;;;5058598;28;19962;-77
2022/10/13 01:08:04;;;;;;;;;;;12.00;69.90;;;;;;5071464;28;19920;-77
2022/10/13 01:10:48;;;;;;;;;;;12.00;69.90;;;;;;5074940;28;19911;-77
2022/10/13 01:13:20;;;;;;;;;;;12.00;69.90;;;;;;5076225;28;19927;-77
2022/10/13 01:15:49;;;;;;;;;;;12.00;69.90;;;;;;5056874;28;20308;-77
2022/10/13 01:18:14;;;;;;;;;;;12.00;69.90;;;;;;5074228;28;19915;-77
2022/10/13 01:20:55;;;;;;;;;;;12.00;69.90;;;;;;5075390;28;19938;-76
2022/10/13 01:23:39;;;;;;;;;;;12.00;69.90;;;;;;5072806;28;19920;-77
2022/10/13 01:26:23;;;;;;;;;;;12.00;70.00;;;;;;5058604;28;19951;-77
2022/10/13 01:29:07;;;;;;;;;;;12.00;69.90;;;;;;5060752;28;19928;-77
2022/10/13 01:31:36;;;;;;;;;;;11.90;69.90;;;;;;5071428;28;19962;-77
2022/10/13 01:34:07;;;;;;;;;;;11.90;70.00;;;;;;5054978;28;20011;-77
2022/10/13 01:36:47;;;;;;;;;;;11.90;70.00;;;;;;5069215;28;19955;-77
2022/10/13 01:39:31;;;;;;;;;;;11.90;70.00;;;;;;5056253;28;19916;-77
2022/10/13 01:42:00;;;;;;;;;;;12.00;70.00;;;;;;5057669;28;19918;-77
2022/10/13 01:44:28;;;;;;;;;;;12.00;70.00;;;;;;5056902;28;19924;-77
2022/10/13 01:46:53;;;;;;;;;;;12.00;70.10;;;;;;5052220;28;19924;-76
2022/10/13 01:49:19;;;;;;;;;;;12.00;70.10;;;;;;5074131;28;20367;-77
2022/10/13 01:51:45;;;;;;;;;;;11.90;70.00;;;;;;5055332;28;19922;-77
2022/10/13 01:54:10;;;;;;;;;;;11.90;70.10;;;;;;5076485;28;19916;-76
2022/10/13 01:56:36;;;;;;;;;;;11.90;70.10;;;;;;5056229;28;20295;-76
2022/10/13 01:59:03;;;;;;;;;;;11.90;70.10;;;;;;5074216;28;19920;-77
2022/10/13 02:01:34;;;;;;;;;;;11.90;70.10;;;;;;5072916;28;19924;-77
2022/10/13 02:04:19;;;;;;;;;;;11.90;70.10;;;;;;5071335;28;19924;-77
2022/10/13 02:06:46;;;;;;;;;;;11.90;70.10;;;;;;5074801;28;19916;-77
2022/10/13 02:09:22;;;;;;;;;;;12.00;70.20;;;;;;5052086;28;19917;-76
2022/10/13 02:11:51;;;;;;;;;;;12.00;70.10;;;;;;5046592;28;19920;-76
2022/10/13 02:14:29;;;;;;;;;;;12.00;70.10;;;;;;5059556;28;20291;-77
2022/10/13 02:16:55;;;;;;;;;;;12.00;70.10;;;;;;5054941;28;20007;-77
2022/10/13 02:19:20;;;;;;;;;;;12.00;70.10;;;;;;5054459;28;19912;-76
2022/10/13 02:21:46;;;;;;;;;;;12.00;70.10;;;;;;5058638;28;19923;-77
2022/10/13 02:24:11;;;;;;;;;;;12.00;70.10;;;;;;5040413;28;20382;-77
2022/10/13 02:26:37;;;;;;;;;;;12.00;70.20;;;;;;5054239;28;19941;-77
2022/10/13 02:29:08;;;;;;;;;;;12.00;70.20;;;;;;5053864;28;19970;-76
2022/10/13 02:31:34;;;;;;;;;;;12.00;70.20;;;;;;5073175;28;20337;-77
2022/10/13 02:33:59;;;;;;;;;;;12.00;70.20;;;;;;5074291;28;20360;-77
2022/10/13 02:36:25;;;;;;;;;;;12.00;70.20;;;;;;5078040;28;20522;-77
2022/10/13 02:38:50;;;;;;;;;;;11.90;70.10;;;;;;5074677;28;19917;-76
2022/10/13 02:41:16;;;;;;;;;;;11.90;70.10;;;;;;5060975;28;19950;-77
2022/10/13 02:43:41;;;;;;;;;;;12.00;70.20;;;;;;5046736;28;20396;-76
2022/10/13 02:46:07;;;;;;;;;;;11.90;70.20;;;;;;5079573;28;19920;-77
2022/10/13 02:48:32;;;;;;;;;;;11.90;70.20;;;;;;5064305;28;19920;-77
2022/10/13 02:50:58;;;;;;;;;;;11.90;70.20;;;;;;5044125;28;20319;-77
2022/10/13 02:53:23;;;;;;;;;;;11.90;70.20;;;;;;5080286;28;20408;-77
2022/10/13 02:55:49;;;;;;;;;;;12.00;70.30;;;;;;5061382;28;20422;-77
2022/10/13 02:58:14;;;;;;;;;;;11.90;70.20;;;;;;5078631;28;19974;-77
2022/10/13 03:00:40;;;;;;;;;;;12.00;70.30;;;;;;5057975;28;19912;-77
2022/10/13 03:03:05;;;;;;;;;;;11.90;70.30;;;;;;5045001;28;19923;-77
2022/10/13 03:05:31;;;;;;;;;;;11.90;70.30;;;;;;5079261;28;20342;-76
2022/10/13 03:07:56;;;;;;;;;;;11.90;70.30;;;;;;5044766;28;19921;-76
2022/10/13 03:10:22;;;;;;;;;;;11.90;70.30;;;;;;5077703;28;20389;-76
2022/10/13 03:12:47;;;;;;;;;;;11.90;70.40;;;;;;5064948;28;19923;-77
2022/10/13 03:15:13;;;;;;;;;;;11.90;70.40;;;;;;5078771;28;19920;-77
2022/10/13 03:17:38;;;;;;;;;;;11.90;70.40;;;;;;5078241;28;19912;-77
2022/10/13 03:20:04;;;;;;;;;;;11.90;70.40;;;;;;5057982;28;19916;-77
2022/10/13 03:22:33;;;;;;;;;;;11.90;70.40;;;;;;5058212;28;19914;-77
2022/10/13 03:24:58;;;;;;;;;;;11.90;70.40;;;;;;5077626;28;19958;-77
2022/10/13 03:27:24;;;;;;;;;;;11.90;70.40;;;;;;5078865;28;19924;-77
2022/10/13 03:29:49;;;;;;;;;;;11.90;70.50;;;;;;5072619;28;19916;-76
2022/10/13 03:32:15;;;;;;;;;;;11.90;70.50;;;;;;5058112;28;20196;-76
2022/10/13 03:34:41;;;;;;;;;;;11.90;70.50;;;;;;5078272;28;20302;-77
2022/10/13 03:37:06;;;;;;;;;;;11.90;70.40;;;;;;5057253;28;20065;-77
2022/10/13 03:39:32;;;;;;;;;;;11.90;70.50;;;;;;5075225;28;20296;-76
2022/10/13 03:41:57;;;;;;;;;;;11.90;70.40;;;;;;5059258;28;19916;-76
2022/10/13 03:44:23;;;;;;;;;;;11.90;70.40;;;;;;5061715;28;21286;-77
2022/10/13 03:46:48;;;;;;;;;;;11.90;70.40;;;;;;5038236;28;19966;-76
2022/10/13 03:49:14;;;;;;;;;;;11.90;70.50;;;;;;5061768;28;20428;-76
2022/10/13 03:51:39;;;;;;;;;;;11.90;71.20;;;;;;5058499;28;19913;-77
2022/10/13 03:54:05;;;;;;;;;;;11.90;70.40;;;;;;5077105;28;19912;-76
2022/10/13 03:56:30;;;;;;;;;;;11.90;70.40;;;;;;5076520;28;19918;-76
2022/10/13 03:58:56;;;;;;;;;;;11.90;70.40;;;;;;5072687;28;20607;-76
2022/10/13 04:01:22;;;;;;;;;;;11.90;70.50;;;;;;5055358;28;19920;-76
2022/10/13 04:03:48;;;;;;;;;;;11.90;70.50;;;;;;5050391;28;19916;-76
2022/10/13 04:06:14;;;;;;;;;;;11.90;70.50;;;;;;5058166;28;19916;-76
2022/10/13 04:08:39;;;;;;;;;;;11.90;70.50;;;;;;5074024;28;19915;-76
2022/10/13 04:11:07;;;;;;;;;;;11.90;70.60;;;;;;5049189;28;20321;-77
2022/10/13 04:13:32;;;;;;;;;;;11.90;70.50;;;;;;5058946;28;19950;-77
2022/10/13 04:16:04;;;;;;;;;;;11.90;70.60;;;;;;5083192;28;19943;-76
2022/10/13 04:18:30;;;;;;;;;;;11.90;70.60;;;;;;5062447;28;20439;-76
2022/10/13 04:20:55;;;;;;;;;;;11.90;70.60;;;;;;5064254;28;19952;-76
2022/10/13 04:23:20;;;;;;;;;;;11.90;70.60;;;;;;5079292;28;19920;-76
2022/10/13 04:25:46;;;;;;;;;;;11.90;70.60;;;;;;5076204;28;19923;-76
2022/10/13 04:28:11;;;;;;;;;;;11.90;70.60;;;;;;5079886;28;19925;-76
2022/10/13 04:30:37;;;;;;;;;;;11.90;70.60;;;;;;5078906;28;20371;-76
2022/10/13 04:33:02;;;;;;;;;;;11.90;70.60;;;;;;5059204;28;19912;-76
2022/10/13 04:35:28;;;;;;;;;;;11.90;70.60;;;;;;5078412;28;19955;-76
2022/10/13 04:37:56;;;;;;;;;;;11.90;70.70;;;;;;5076553;28;20269;-76
2022/10/13 04:40:21;;;;;;;;;;;11.90;70.60;;;;;;5056533;28;19994;-76
2022/10/13 04:42:47;;;;;;;;;;;11.90;70.70;;;;;;5075550;28;20035;-76
2022/10/13 04:45:12;;;;;;;;;;;11.90;70.70;;;;;;5076036;28;19920;-76
2022/10/13 04:47:38;;;;;;;;;;;11.80;70.70;;;;;;5063445;28;19916;-78
2022/10/13 04:50:04;;;;;;;;;;;11.80;70.70;;;;;;5060665;28;19923;-77
2022/10/13 04:52:29;;;;;;;;;;;11.80;70.70;;;;;;5048639;28;19912;-77
2022/10/13 04:54:55;;;;;;;;;;;11.90;70.80;;;;;;5080594;28;20003;-77
2022/10/13 04:57:20;;;;;;;;;;;11.80;70.70;;;;;;5077988;28;20621;-77
2022/10/13 04:59:46;;;;;;;;;;;11.90;70.80;;;;;;5062560;28;19916;-77
2022/10/13 05:02:11;;;;;;;;;;;11.90;70.80;;;;;;5061812;28;20412;-77
2022/10/13 05:04:36;;;;;;;;;;;11.90;70.80;;;;;;5076534;28;20019;-76
2022/10/13 05:07:02;;;;;;;;;;;11.90;70.80;;;;;;5079616;28;19931;-77
2022/10/13 05:09:27;;;;;;;;;;;11.90;70.80;;;;;;5081189;28;19912;-77
2022/10/13 05:11:56;;;;;;;;;;;11.90;70.80;;;;;;5061253;28;19923;-77
2022/10/13 05:14:21;;;;;;;;;;;11.90;70.80;;;;;;5047954;28;19916;-75
2022/10/13 05:16:47;;;;;;;;;;;11.90;70.80;;;;;;5073544;28;19912;-76
2022/10/13 05:19:12;;;;;;;;;;;11.90;70.80;;;;;;5074201;28;19919;-77
2022/10/13 05:21:38;;;;;;;;;;;11.90;70.80;;;;;;5055913;28;19950;-76
2022/10/13 05:24:05;;;;;;;;;;;11.90;70.80;;;;;;5076620;28;19927;-76
2022/10/13 05:26:32;;;;;;;;;;;11.90;70.80;;;;;;5057870;28;19915;-76
2022/10/13 05:28:58;;;;;;;;;;;11.90;70.80;;;;;;5056036;28;19916;-76
2022/10/13 05:31:24;;;;;;;;;;;11.90;70.80;;;;;;5059281;28;19916;-76
2022/10/13 05:33:50;;;;;;;;;;;11.90;70.80;;;;;;5072459;28;19966;-76
2022/10/13 05:36:23;;;;;;;;;;;11.90;70.80;;;;;;5057969;28;20053;-76
2022/10/13 05:38:51;;;;;;;;;;;11.90;70.90;;;;;;5075017;28;19919;-76
2022/10/13 05:41:17;;;;;;;;;;;11.90;70.90;;;;;;5072324;28;19912;-76
2022/10/13 05:43:42;;;;;;;;;;;11.90;70.90;;;;;;5057417;28;20548;-77
2022/10/13 05:46:08;;;;;;;;;;;11.90;70.80;;;;;;5056283;28;19920;-76
2022/10/13 05:48:34;;;;;;;;;;;11.90;70.90;;;;;;5056212;28;19923;-76
2022/10/13 05:50:59;;;;;;;;;;;11.90;70.90;;;;;;5073483;28;19920;-78
2022/10/13 05:53:28;;;;;;;;;;;11.80;70.80;;;;;;5072594;28;20005;-76
2022/10/13 05:55:54;;;;;;;;;;;11.90;70.90;;;;;;5070958;28;19943;-76
2022/10/13 05:58:20;;;;;;;;;;;11.90;70.90;;;;;;5056107;28;19967;-75
2022/10/13 06:00:45;;;;;;;;;;;11.90;70.90;;;;;;5070395;28;19922;-76
2022/10/13 06:03:12;;;;;;;;;;;11.90;71.00;;;;;;5072757;28;19920;-78
2022/10/13 06:05:37;;;;;;;;;;;11.80;70.90;;;;;;5090431;28;20376;-78
2022/10/13 06:08:03;;;;;;;;;;;11.90;70.90;;;;;;5072811;28;19927;-77
2022/10/13 06:10:28;;;;;;;;;;;11.90;70.90;;;;;;5061708;28;19920;-76
2022/10/13 06:12:54;;;;;;;;;;;11.90;70.90;;;;;;5059876;28;19978;-76
2022/10/13 06:15:19;;;;;;;;;;;11.90;70.90;;;;;;5061742;28;19919;-77
2022/10/13 06:17:46;;;;;;;;;;;11.90;71.00;;;;;;5082273;28;20539;-77
2022/10/13 06:20:11;;;;;;;;;;;11.90;70.90;;;;;;5081391;28;20615;-76
2022/10/13 06:22:37;;;;;;;;;;;11.90;70.90;;;;;;5065852;28;19916;-77
2022/10/13 06:25:03;;;;;;;;;;;11.90;70.90;;;;;;5062457;28;19911;-75
2022/10/13 06:27:29;;;;;;;;;;;11.90;70.90;;;;;;5082854;28;19928;-76
2022/10/13 06:29:54;;;;;;;;;;;11.90;70.90;;;;;;5061136;28;19965;-77
2022/10/13 06:32:20;;;;;;;;;;;11.90;70.90;;;;;;5082663;28;20425;-77
2022/10/13 06:34:45;;;;;;;;;;;11.90;71.00;;;;;;5050807;28;20414;-77
2022/10/13 06:37:11;;;;;;;;;;;11.90;70.90;;;;;;5081579;28;19924;-80
2022/10/13 06:39:36;;;;;;;;;;;11.90;70.90;;;;;;5073274;28;19912;-77
2022/10/13 06:42:02;;;;;;;;;;;11.90;70.90;;;;;;5057786;28;20159;-77
2022/10/13 06:44:29;;;;;;;;;;;11.90;71.00;;;;;;5042785;28;19931;-76
2022/10/13 06:46:54;;;;;;;;;;;11.90;71.00;;;;;;5075250;28;20288;-76
2022/10/13 06:49:20;;;;;;;;;;;11.90;71.10;;;;;;5078422;28;19912;-77
2022/10/13 06:51:45;;;;;;;;;;;11.90;71.00;;;;;;5048370;28;20003;-77
2022/10/13 06:54:10;;;;;;;;;;;12.00;71.10;;;;;;5078965;28;19927;-78
2022/10/13 06:56:36;;;;;;;;;;;11.90;71.00;;;;;;5063843;28;19927;-78
2022/10/13 06:59:01;;;;;;;;;;;12.00;71.00;;;;;;5078564;28;19927;-77
2022/10/13 07:01:27;;;;;;;;;;;12.00;71.00;;;;;;5058731;28;19908;-77
2022/10/13 07:03:53;;;;;;;;;;;12.00;71.00;;;;;;5060732;28;20379;-76
2022/10/13 07:06:18;;;;;;;;;;;12.00;71.00;;;;;;5078701;28;20490;-76
2022/10/13 07:08:44;;;;;;;;;;;12.00;71.00;;;;;;5076037;28;19948;-76
2022/10/13 07:11:11;;;;;;;;;;;12.00;71.00;;;;;;5090260;28;19908;-77
2022/10/13 07:13:37;;;;;;;;;;;12.10;71.10;;;;;;5063123;28;19912;-76
2022/10/13 07:16:03;;;;;;;;;;;12.10;71.00;;;;;;5078969;28;19919;-76
2022/10/13 07:18:28;;;;;;;;;;;12.10;71.00;;;;;;5080189;28;19978;-76
2022/10/13 07:20:55;;;;;;;;;;;12.20;71.00;;;;;;5052372;28;19916;-77
2022/10/13 07:23:21;;;;;;;;;;;12.20;71.00;;;;;;5075768;28;19924;-77
2022/10/13 07:25:46;;;;;;;;;;;12.20;71.10;;;;;;5074986;28;20325;-77
2022/10/13 07:28:12;;;;;;;;;;;12.30;71.00;;;;;;5075402;28;19932;-76
2022/10/13 07:30:38;;;;;;;;;;;12.30;70.90;;;;;;5087740;28;19938;-76
2022/10/13 07:33:03;;;;;;;;;;;12.30;70.90;;;;;;5076771;28;19916;-77
2022/10/13 07:35:29;;;;;;;;;;;12.30;70.90;;;;;;5078485;28;19920;-77
2022/10/13 07:37:54;;;;;;;;;;;12.30;70.90;;;;;;5079445;28;19965;-77
2022/10/13 07:40:19;;;;;;;;;;;12.40;70.90;;;;;;5061151;28;20288;-76
2022/10/13 07:42:45;;;;;;;;;;;12.40;70.80;;;;;;5072590;28;20007;-77
2022/10/13 07:45:11;;;;;;;;;;;12.40;70.90;;;;;;5071708;28;20303;-76
2022/10/13 07:47:36;;;;;;;;;;;12.50;70.80;;;;;;5060505;28;20482;-77
2022/10/13 07:50:02;;;;;;;;;;;12.50;70.90;;;;;;5058041;28;19919;-77
2022/10/13 07:52:27;;;;;;;;;;;12.50;70.80;;;;;;5076635;28;19916;-77
2022/10/13 07:54:53;;;;;;;;;;;12.60;70.80;;;;;;5074661;28;19917;-76
2022/10/13 07:57:18;;;;;;;;;;;12.60;70.80;;;;;;5061774;28;19973;-77
2022/10/13 07:59:44;;;;;;;;;;;12.60;70.80;;;;;;5067021;28;19957;-76
2022/10/13 08:02:09;;;;;;;;;;;12.60;71.60;;;;;;5064086;28;19916;-76
2022/10/13 08:04:35;;;;;;;;;;;12.70;70.80;;;;;;5077316;28;20600;-76
2022/10/13 08:07:00;;;;;;;;;;;12.70;70.80;;;;;;5059684;28;20050;-76
2022/10/13 08:09:26;;;;;;;;;;;12.70;70.80;;;;;;5076806;28;19916;-76
2022/10/13 08:11:51;;;;;;;;;;;12.70;70.70;;;;;;5074822;28;19916;-76
2022/10/13 08:14:18;;;;;;;;;;;12.70;70.70;;;;;;5054635;28;20065;-76
2022/10/13 08:16:44;;;;;;;;;;;12.70;70.70;;;;;;5059659;28;19920;-76
2022/10/13 08:19:13;;;;;;;;;;;12.70;70.70;;;;;;5057748;28;19947;-76
2022/10/13 08:21:38;;;;;;;;;;;12.70;70.70;;;;;;5061763;28;19912;-76
2022/10/13 08:24:13;;;;;;;;;;;12.80;70.80;;;;;;5076752;28;20029;-76
2022/10/13 08:26:39;;;;;;;;;;;12.80;70.70;;;;;;5058318;28;19994;-77
2022/10/13 08:29:04;;;;;;;;;;;12.80;70.70;;;;;;5056606;28;20003;-76
2022/10/13 08:31:30;;;;;;;;;;;12.80;70.80;;;;;;5059134;28;20330;-75
2022/10/13 08:33:55;;;;;;;;;;;12.80;70.70;;;;;;5055117;28;19919;-76
2022/10/13 08:36:21;;;;;;;;;;;12.80;70.70;;;;;;5056935;28;19916;-76
2022/10/13 08:38:46;;;;;;;;;;;12.90;70.80;;;;;;5073497;28;19924;-76
2022/10/13 08:41:19;;;;;;;;;;;12.90;70.70;;;;;;5042687;28;19916;-75
2022/10/13 08:43:46;;;;;;;;;;;13.00;70.70;;;;;;5054457;28;19928;-76
2022/10/13 08:46:12;;;;;;;;;;;13.00;70.60;;;;;;5051661;28;19916;-76
2022/10/13 08:48:38;;;;;;;;;;;13.10;70.60;;;;;;5082814;28;19939;-75
2022/10/13 08:51:04;;;;;;;;;;;13.10;70.60;;;;;;5071306;28;19919;-74
2022/10/13 08:53:32;;;;;;;;;;;13.10;70.50;;;;;;5051126;28;19920;-76
2022/10/13 08:56:06;;;;;;;;;;;13.20;70.50;;;;;;5054693;28;20275;-76
2022/10/13 08:58:32;;;;;;;;;;;13.20;70.50;;;;;;5074542;28;19923;-77
2022/10/13 09:01:16;;;;;;;;;;;13.20;70.50;;;;;;5085912;28;19912;-76
2022/10/13 09:04:00;;;;;;;;;;;13.30;70.50;;;;;;5063753;28;19978;-75
2022/10/13 09:06:31;;;;;;;;;;;13.30;70.50;;;;;;5060100;28;19963;-76
2022/10/13 09:08:57;;;;;;;;;;;13.30;71.20;;;;;;5056361;28;20007;-76
2022/10/13 09:11:31;;;;;;;;;;;13.40;70.50;;;;;;5068031;28;20568;-76
2022/10/13 09:13:57;;;;;;;;;;;13.40;70.40;;;;;;5072421;28;19923;-76
2022/10/13 09:16:29;;;;;;;;;;;13.40;70.40;;;;;;5071113;28;20622;-76
2022/10/13 09:19:00;;;;;;;;;;;13.50;70.50;;;;;;5055279;28;19927;-76
2022/10/13 09:21:26;;;;;;;;;;;13.50;70.40;;;;;;5057933;28;19946;-76
2022/10/13 09:23:52;;;;;;;;;;;13.50;70.40;;;;;;5058340;28;19962;-75
2022/10/13 09:26:19;;;;;;;;;;;13.60;70.40;;;;;;5074256;28;19920;-77
2022/10/13 09:28:45;;;;;;;;;;;13.60;70.40;;;;;;5076911;28;19916;-77
2022/10/13 09:31:22;;;;;;;;;;;13.60;70.40;;;;;;5075006;28;19943;-76
2022/10/13 09:33:55;;;;;;;;;;;13.60;70.40;;;;;;5060031;28;19912;-77
2022/10/13 09:36:21;;;;;;;;;;;13.70;70.40;;;;;;5073544;28;19963;-77
2022/10/13 09:39:03;;;;;;;;;;;13.70;70.40;;;;;;5074244;28;19962;-76
2022/10/13 09:41:29;;;;;;;;;;;13.80;70.40;;;;;;5089410;28;19919;-76
2022/10/13 09:43:55;;;;;;;;;;;13.80;70.30;;;;;;5084971;28;20381;-76
2022/10/13 09:46:26;;;;;;;;;;;13.90;70.30;;;;;;5072245;28;19966;-76
2022/10/13 09:49:01;;;;;;;;;;;14.00;70.30;;;;;;5089118;28;19926;-76
2022/10/13 09:51:26;;;;;;;;;;;14.00;70.20;;;;;;5087602;28;19948;-76
2022/10/13 09:53:52;;;;;;;;;;;14.10;70.20;;;;;;5087396;28;19912;-76
2022/10/13 09:56:21;;;;;;;;;;;14.10;70.10;;;;;;5075725;28;19932;-76
2022/10/13 09:58:49;;;;;;;;;;;14.20;70.20;;;;;;5056429;28;20026;-76
2022/10/13 10:01:19;;;;;;;;;;;14.30;70.10;;;;;;5073004;28;19951;-75
2022/10/13 10:03:44;;;;;;;;;;;14.30;70.00;;;;;;5070646;28;19916;-76
2022/10/13 10:06:11;;;;;;;;;;;14.40;70.00;;;;;;5057272;28;19923;-76
2022/10/13 10:08:54;;;;;;;;;;;14.50;70.00;;;;;;5053018;28;19927;-77
2022/10/13 10:11:21;;;;;;;;;;;14.50;69.90;;;;;;5074933;28;20293;-76
2022/10/13 10:13:47;;;;;;;;;;;14.60;69.80;;;;;;5069872;28;19912;-76
2022/10/13 10:16:33;;;;;;;;;;;14.70;69.80;;;;;;5062931;28;19916;-76
2022/10/13 10:19:02;;;;;;;;;;;14.70;69.70;;;;;;5053988;28;19991;-77
2022/10/13 10:21:34;;;;;;;;;;;14.80;69.70;;;;;;5060158;28;19970;-77
2022/10/13 10:24:18;;;;;;;;;;;14.80;69.60;;;;;;5087955;28;19935;-77
2022/10/13 10:26:46;;;;;;;;;;;14.90;69.60;;;;;;5081582;28;20158;-77
2022/10/13 10:29:16;;;;;;;;;;;15.00;69.60;;;;;;5057816;28;19920;-76
2022/10/13 10:31:41;;;;;;;;;;;15.00;69.60;;;;;;5073511;28;20798;-77
2022/10/13 10:34:27;;;;;;;;;;;15.10;69.50;;;;;;5075984;28;19999;-76
2022/10/13 10:37:05;;;;;;;;;;;15.10;69.50;;;;;;5075637;28;19913;-76
2022/10/13 10:39:49;;;;;;;;;;;15.10;69.40;;;;;;5071918;28;20376;-76
2022/10/13 10:42:14;;;;;;;;;;;15.20;69.40;;;;;;5056560;28;19970;-76
2022/10/13 10:44:40;;;;;;;;;;;15.20;69.30;;;;;;5070150;28;19924;-77
2022/10/13 10:47:09;;;;;;;;;;;15.30;69.30;;;;;;5086349;28;19924;-77
2022/10/13 10:49:38;;;;;;;;;;;15.40;69.30;;;;;;5072155;28;19966;-76
2022/10/13 10:52:08;;;;;;;;;;;15.40;69.30;;;;;;5056836;28;20010;-76
2022/10/13 10:54:39;;;;;;;;;;;15.50;69.30;;;;;;5089807;28;19963;-77
2022/10/13 10:57:34;;;;;;;;;;;15.50;69.20;;;;;;5076760;28;20379;-75
2022/10/13 11:00:03;;;;;;;;;;;15.60;69.20;;;;;;5062758;28;19916;-76
2022/10/13 11:02:33;;;;;;;;;;;15.60;69.20;;;;;;5075640;28;20371;-76
2022/10/13 11:04:59;;;;;;;;;;;15.60;69.10;;;;;;5073110;28;20378;-76
2022/10/13 11:07:25;;;;;;;;;;;15.70;69.10;;;;;;5076603;28;19920;-75
2022/10/13 11:09:50;;;;;;;;;;;15.80;69.00;;;;;;5077083;28;20557;-75
2022/10/13 11:12:19;;;;;;;;;;;15.80;69.00;;;;;;5079060;28;20319;-76
2022/10/13 11:14:45;;;;;;;;;;;15.80;68.90;;;;;;5068456;28;20551;-75
2022/10/13 11:17:13;;;;;;;;;;;15.90;68.90;;;;;;5055088;28;20614;-76
2022/10/13 11:19:39;;;;;;;;;;;15.90;68.80;;;;;;5052533;28;19919;-76
2022/10/13 11:22:04;;;;;;;;;;;16.00;68.90;;;;;;5060487;28;19920;-75
2022/10/13 11:24:37;;;;;;;;;;;16.00;68.80;;;;;;5080097;28;20002;-76
2022/10/13 11:27:11;;;;;;;;;;;16.00;68.70;;;;;;5063744;28;20435;-75
2022/10/13 11:29:57;;;;;;;;;;;16.10;68.80;;;;;;5060970;28;19943;-76
2022/10/13 11:35:00;;;;;;;;;;;16.10;68.70;;;;;;5076899;28;20007;-76
2022/10/13 11:37:44;;;;;;;;;;;16.10;68.70;;;;;;5057590;28;20490;-76
2022/10/13 11:40:24;;;;;;;;;;;16.10;68.80;;;;;;5075211;28;20386;-75
2022/10/13 11:42:52;;;;;;;;;;;16.20;68.70;;;;;;5073489;28;20364;-75
2022/10/13 11:45:41;;;;;;;;;;;16.20;68.70;;;;;;5073339;28;20647;-75
2022/10/13 11:48:13;;;;;;;;;;;16.30;68.70;;;;;;5060696;28;19962;-75
2022/10/13 11:50:57;;;;;;;;;;;16.30;68.60;;;;;;5071619;28;19916;-76
2022/10/13 11:53:24;;;;;;;;;;;16.40;68.60;;;;;;5060748;28;20007;-76
2022/10/13 11:55:50;;;;;;;;;;;16.50;68.50;;;;;;5074943;28;19912;-77
2022/10/13 11:58:23;;;;;;;;;;;16.50;68.50;;;;;;5075690;28;19973;-76
2022/10/13 12:01:02;;;;;;;;;;;16.50;68.50;;;;;;5077196;28;19947;-75
2022/10/13 12:03:31;;;;;;;;;;;16.50;68.40;;;;;;5058679;28;19937;-75
2022/10/13 12:06:23;;;;;;;;;;;16.50;68.40;;;;;;5076426;28;19920;-75
2022/10/13 12:08:50;;;;;;;;;;;16.60;68.40;;;;;;5074773;28;19963;-76
2022/10/13 12:11:22;;;;;;;;;;;16.60;68.40;;;;;;5074869;28;20395;-76
2022/10/13 12:13:47;;;;;;;;;;;16.60;68.40;;;;;;5064289;28;19977;-76
2022/10/13 12:16:12;;;;;;;;;;;16.70;68.40;;;;;;5073061;28;20311;-76
2022/10/13 12:18:38;;;;;;;;;;;16.70;68.40;;;;;;5058262;28;19908;-75
2022/10/13 12:21:10;;;;;;;;;;;16.70;68.30;;;;;;5077774;28;19908;-76
2022/10/13 12:23:35;;;;;;;;;;;16.70;68.20;;;;;;5058942;28;19924;-75
2022/10/13 12:26:01;;;;;;;;;;;16.80;68.20;;;;;;5056852;28;20904;-76
2022/10/13 12:28:28;;;;;;;;;;;16.80;68.30;;;;;;5060096;28;19921;-75
2022/10/13 12:30:54;;;;;;;;;;;16.80;68.30;;;;;;5069008;28;19919;-75
2022/10/13 12:33:25;;;;;;;;;;;16.80;68.20;;;;;;5041539;28;19957;-76
2022/10/13 12:35:51;;;;;;;;;;;16.90;68.20;;;;;;5040341;28;19913;-76
2022/10/13 12:38:18;;;;;;;;;;;17.00;68.20;;;;;;5056609;28;19924;-76
2022/10/13 12:40:43;;;;;;;;;;;17.00;68.20;;;;;;5058487;28;19963;-76
2022/10/13 12:43:10;;;;;;;;;;;17.00;68.10;;;;;;5039077;28;19960;-76
2022/10/13 12:45:35;;;;;;;;;;;17.00;68.20;;;;;;5055155;28;20296;-77
2022/10/13 12:48:01;;;;;;;;;;;17.00;68.10;;;;;;5032500;28;19916;-77
2022/10/13 12:50:26;;;;;;;;;;;17.00;68.10;;;;;;5039300;28;20003;-76
2022/10/13 12:52:53;;;;;;;;;;;17.00;68.10;;;;;;5051581;28;19963;-76
2022/10/13 12:55:18;;;;;;;;;;;17.00;68.10;;;;;;5037674;28;20372;-76
2022/10/13 12:57:44;;;;;;;;;;;17.00;68.10;;;;;;5056128;28;19963;-76
2022/10/13 13:00:19;;;;;;;;;;;17.10;68.10;;;;;;5054234;28;19920;-77
2022/10/13 13:02:53;;;;;;;;;;;17.10;68.00;;;;;;5054400;28;20342;-77
2022/10/13 13:05:31;;;;;;;;;;;17.10;68.00;;;;;;5049556;28;19920;-76
2022/10/13 13:07:57;;;;;;;;;;;17.10;68.00;;;;;;5034995;28;20000;-76
2022/10/13 13:10:23;;;;;;;;;;;17.10;68.00;;;;;;5049179;28;20003;-76
2022/10/13 13:12:48;;;;;;;;;;;17.10;68.00;;;;;;5034960;28;19952;-76
2022/10/13 13:15:23;;;;;;;;;;;17.10;68.00;;;;;;5036654;28;20420;-77
2022/10/13 13:17:49;;;;;;;;;;;17.10;68.00;;;;;;5049097;28;20556;-76
2022/10/13 13:20:33;;;;;;;;;;;17.20;68.10;;;;;;5051862;28;19916;-76
2022/10/13 13:22:59;;;;;;;;;;;17.20;68.10;;;;;;5049918;28;19917;-76
2022/10/13 13:25:25;;;;;;;;;;;17.20;68.10;;;;;;5053988;28;20592;-76
2022/10/13 13:27:50;;;;;;;;;;;17.10;68.00;;;;;;5065878;28;20540;-76
2022/10/13 13:30:17;;;;;;;;;;;17.10;68.80;;;;;;5077249;28;19924;-76
2022/10/13 13:32:43;;;;;;;;;;;17.20;68.00;;;;;;5059058;28;19986;-76
2022/10/13 13:35:08;;;;;;;;;;;17.10;68.00;;;;;;5075117;28;19967;-77
2022/10/13 13:37:46;;;;;;;;;;;17.10;68.00;;;;;;5082032;28;20466;-77
2022/10/13 13:40:18;;;;;;;;;;;17.10;68.00;;;;;;5090567;28;19916;-78
2022/10/13 13:42:44;;;;;;;;;;;17.10;68.10;;;;;;5069608;28;19926;-77
2022/10/13 13:45:12;;;;;;;;;;;17.10;68.10;;;;;;5061246;28;19916;-78
2022/10/13 13:47:38;;;;;;;;;;;17.00;68.10;;;;;;5045310;28;20023;-78
2022/10/13 13:50:05;;;;;;;;;;;17.00;68.10;;;;;;5071461;28;19998;-78
2022/10/13 13:52:30;;;;;;;;;;;17.00;68.20;;;;;;5065254;28;20380;-78
2022/10/13 13:54:56;;;;;;;;;;;17.00;68.30;;;;;;5092390;28;19913;-77
2022/10/13 13:57:21;;;;;;;;;;;17.00;68.30;;;;;;5063395;28;20306;-77
2022/10/13 13:59:47;;;;;;;;;;;17.00;68.30;;;;;;5042988;28;19920;-78
2022/10/13 14:02:14;;;;;;;;;;;17.00;68.40;;;;;;5092739;28;19927;-78
2022/10/13 14:04:39;;;;;;;;;;;17.00;68.30;;;;;;5096523;28;19920;-78
2022/10/13 14:07:04;;;;;;;;;;;17.00;68.30;;;;;;5076682;28;20376;-77
2022/10/13 14:09:30;;;;;;;;;;;17.00;68.30;;;;;;5060495;28;19919;-78
2022/10/13 14:11:56;;;;;;;;;;;17.00;68.30;;;;;;5067197;28;20478;-77
2022/10/13 14:14:21;;;;;;;;;;;17.00;68.30;;;;;;5060854;28;19917;-77
2022/10/13 14:16:46;;;;;;;;;;;17.00;68.40;;;;;;5079119;28;19920;-77
2022/10/13 14:19:12;;;;;;;;;;;17.00;68.30;;;;;;5090335;28;20023;-78
2022/10/13 14:21:38;;;;;;;;;;;17.00;68.30;;;;;;5076092;28;19965;-78
2022/10/13 14:24:03;;;;;;;;;;;17.10;68.40;;;;;;5089567;28;19919;-77